createdAt,value
2023-06-01T00:03:01.238Z,102334.72
2023-06-01T00:08:49.418Z,102332.88
2023-06-01T00:14:36.591Z,102336.19
2023-06-01T00:20:25.758Z,102326.06
2023-06-01T00:26:12.631Z,102325.97
2023-06-01T00:32:00.810Z,102321.47
2023-06-01T00:37:48.183Z,102317.19
2023-06-01T00:43:38.137Z,102324.91
2023-06-01T00:49:26.965Z,102319.94
2023-06-01T00:55:14.004Z,102319.16
2023-06-01T01:01:06.398Z,102318.00
2023-06-01T01:07:02.104Z,102307.78
2023-06-01T01:12:58.133Z,102304.19
2023-06-01T01:19:17.734Z,102312.19
2023-06-01T01:25:44.809Z,102300.59
2023-06-01T01:31:36.091Z,102304.13
2023-06-01T01:37:23.475Z,102299.72
2023-06-01T01:43:11.395Z,102309.25
2023-06-01T01:49:01.221Z,102301.38
2023-06-01T01:54:58.104Z,102310.50
2023-06-01T02:00:46.639Z,102312.34
2023-06-01T02:06:34.934Z,102307.06
2023-06-01T02:12:26.055Z,102299.75
2023-06-01T02:48:37.433Z,102289.59
2023-06-01T02:54:24.530Z,102282.03
2023-06-01T03:00:17.178Z,102278.69
2023-06-01T03:06:09.699Z,102279.16
2023-06-01T03:12:14.826Z,102279.34
2023-06-01T03:18:04.128Z,102280.97
2023-06-01T03:23:52.727Z,102277.03
2023-06-01T03:29:39.551Z,102274.53
2023-06-01T03:35:26.797Z,102271.19
2023-06-01T03:41:13.835Z,102285.84
2023-06-01T03:47:01.156Z,102277.97
2023-06-01T03:52:48.744Z,102282.03
2023-06-01T03:58:35.906Z,102275.78
2023-06-01T04:04:29.572Z,102279.22
2023-06-01T04:10:17.873Z,102274.31
2023-06-01T04:16:07.444Z,102286.63
2023-06-01T04:21:55.222Z,102291.72
2023-06-01T04:27:49.148Z,102281.81
2023-06-01T04:33:36.016Z,102272.66
2023-06-01T04:39:22.946Z,102266.09
2023-06-01T04:45:15.113Z,102280.53
2023-06-01T04:51:05.608Z,102283.41
2023-06-01T04:56:52.511Z,102282.03
2023-06-01T05:02:48.908Z,102282.03
2023-06-01T05:08:37.084Z,102275.91
2023-06-01T05:14:23.928Z,102277.66
2023-06-01T05:20:12.880Z,102267.03
2023-06-01T05:26:07.302Z,102285.03
2023-06-01T05:31:56.900Z,102279.63
2023-06-01T05:37:47.009Z,102276.94
2023-06-01T05:43:38.249Z,102273.50
2023-06-01T05:49:28.185Z,102265.19
2023-06-01T05:55:16.251Z,102276.34
2023-06-01T06:01:03.486Z,102279.78
2023-06-01T06:06:50.778Z,102267.03
2023-06-01T06:12:37.605Z,102270.03
2023-06-01T06:18:24.620Z,102282.59
2023-06-01T06:24:11.424Z,102280.25
2023-06-01T06:29:58.251Z,102283.63
2023-06-01T06:35:45.250Z,102274.38
2023-06-01T06:41:32.063Z,102273.78
2023-06-01T06:47:21.197Z,102273.84
2023-06-01T06:53:08.139Z,102260.91
2023-06-01T06:59:06.806Z,102262.81
2023-06-01T07:04:56.752Z,102262.09
2023-06-01T07:10:44.202Z,102263.34
2023-06-01T07:16:33.187Z,102263.13
2023-06-01T07:22:22.419Z,102276.84
2023-06-01T07:28:13.313Z,102277.53
2023-06-01T07:34:02.383Z,102277.47
2023-06-01T07:39:49.993Z,102277.69
2023-06-01T07:45:37.974Z,102282.53
2023-06-01T07:51:25.528Z,102274.50
2023-06-01T07:57:12.611Z,102278.38
2023-06-01T08:03:02.291Z,102282.53
2023-06-01T08:08:50.458Z,102278.47
2023-06-01T08:14:39.430Z,102276.72
2023-06-01T08:20:28.902Z,102276.28
2023-06-01T08:26:15.630Z,102276.91
2023-06-01T08:32:07.617Z,102273.59
2023-06-01T08:37:55.994Z,102272.19
2023-06-01T08:43:55.302Z,102268.75
2023-06-01T08:49:46.129Z,102275.84
2023-06-01T08:55:33.586Z,102273.50
2023-06-01T09:01:22.691Z,102274.53
2023-06-01T09:07:12.593Z,102261.91
2023-06-01T09:13:01.142Z,102269.03
2023-06-01T09:18:54.664Z,102260.31
2023-06-01T09:24:44.219Z,102254.97
2023-06-01T09:30:45.996Z,102249.25
2023-06-01T09:36:34.222Z,102258.69
2023-06-01T09:42:32.866Z,102258.75
2023-06-01T09:48:20.273Z,102257.09
2023-06-01T09:54:07.020Z,102247.91
2023-06-01T09:59:53.897Z,102251.31
2023-06-01T10:05:41.689Z,102254.53
2023-06-01T10:11:29.316Z,102245.44
2023-06-01T10:17:17.681Z,102253.72
2023-06-01T10:23:07.323Z,102244.31
2023-06-01T10:28:57.024Z,102241.56
2023-06-01T10:34:46.973Z,102246.75
2023-06-01T10:40:39.888Z,102242.38
2023-06-01T10:46:44.098Z,102237.34
2023-06-01T10:52:37.262Z,102229.84
2023-06-01T10:58:25.364Z,102223.75
2023-06-01T11:04:16.688Z,102229.31
2023-06-01T11:10:04.012Z,102221.34
2023-06-01T11:16:12.217Z,102225.00
2023-06-01T11:22:04.744Z,102226.03
2023-06-01T11:27:51.829Z,102221.28
2023-06-01T11:33:42.111Z,102217.47
2023-06-01T11:39:31.197Z,102202.97
2023-06-01T11:45:18.876Z,102209.00
2023-06-01T11:51:06.685Z,102205.91
2023-06-01T11:56:57.280Z,102214.34
2023-06-01T12:02:46.306Z,102202.88
2023-06-01T12:08:33.229Z,102182.88
2023-06-01T12:14:20.226Z,102191.91
2023-06-01T12:20:08.274Z,102179.31
2023-06-01T12:26:00.574Z,102180.28
2023-06-01T12:31:55.390Z,102188.06
2023-06-01T12:37:46.444Z,102184.59
2023-06-01T12:43:35.167Z,102195.88
2023-06-01T12:49:22.307Z,102178.22
2023-06-01T12:55:09.864Z,102180.78
2023-06-01T13:00:57.892Z,102165.13
2023-06-01T13:06:45.858Z,102174.22
2023-06-01T13:12:32.751Z,102149.78
2023-06-01T13:18:20.877Z,102137.94
2023-06-01T13:24:09.670Z,102145.34
2023-06-01T13:29:56.470Z,102141.81
2023-06-01T13:35:45.953Z,102132.50
2023-06-01T13:41:34.166Z,102134.00
2023-06-01T13:47:22.038Z,102136.47
2023-06-01T13:53:08.829Z,102114.81
2023-06-01T13:58:57.272Z,102126.94
2023-06-01T14:04:44.643Z,102125.09
2023-06-01T14:10:36.267Z,102112.56
2023-06-01T14:16:24.381Z,102094.28
2023-06-01T14:22:17.923Z,102087.22
2023-06-01T14:28:11.925Z,102089.09
2023-06-01T14:33:59.166Z,102085.16
2023-06-01T14:39:48.520Z,102087.03
2023-06-01T14:45:35.419Z,102075.00
2023-06-01T14:51:22.211Z,102071.81
2023-06-01T14:57:11.749Z,102059.63
2023-06-01T15:02:58.715Z,102063.38
2023-06-01T15:08:46.053Z,102046.00
2023-06-01T15:14:35.007Z,102045.41
2023-06-01T15:20:23.832Z,102040.56
2023-06-01T15:26:12.849Z,102031.66
2023-06-01T15:32:01.551Z,102043.06
2023-06-01T15:37:50.496Z,102040.75
2023-06-01T15:43:37.749Z,102050.75
2023-06-01T15:49:27.707Z,102041.22
2023-06-01T15:55:14.449Z,102038.81
2023-06-01T16:01:11.881Z,102029.31
2023-06-01T16:06:59.172Z,102028.88
2023-06-01T16:12:46.651Z,102018.06
2023-06-01T16:18:34.777Z,102019.75
2023-06-01T16:24:21.588Z,102009.16
2023-06-01T16:30:11.736Z,102009.38
2023-06-01T16:36:00.889Z,102001.00
2023-06-01T16:41:47.685Z,102005.72
2023-06-01T16:47:36.825Z,102008.00
2023-06-01T16:53:29.370Z,102010.22
2023-06-01T16:59:21.375Z,101994.81
2023-06-01T17:05:11.565Z,102006.44
2023-06-01T17:11:17.420Z,101988.94
2023-06-01T17:17:15.139Z,101975.06
2023-06-01T17:23:05.107Z,101973.22
2023-06-01T17:28:54.456Z,101974.88
2023-06-01T17:34:41.279Z,101974.19
2023-06-01T17:40:31.582Z,101977.34
2023-06-01T17:46:18.629Z,101972.00
2023-06-01T17:52:05.711Z,101953.47
2023-06-01T17:57:56.766Z,101959.19
2023-06-01T18:03:43.666Z,101965.53
2023-06-01T18:09:32.019Z,101972.09
2023-06-01T18:15:18.851Z,101957.28
2023-06-01T18:21:06.036Z,101985.56
2023-06-01T18:26:53.009Z,101987.50
2023-06-01T18:32:39.743Z,101997.25
2023-06-01T18:38:26.662Z,101996.53
2023-06-01T18:44:13.796Z,102004.50
2023-06-01T18:50:03.294Z,101999.66
2023-06-01T18:55:50.499Z,102014.81
2023-06-01T19:01:39.608Z,102021.66
2023-06-01T19:07:34.830Z,102022.97
2023-06-01T19:13:26.381Z,102024.91
2023-06-01T19:19:28.347Z,102038.06
2023-06-01T19:25:16.614Z,102028.53
2023-06-01T19:31:07.784Z,102043.09
2023-06-01T19:36:57.855Z,102044.09
2023-06-01T19:42:48.553Z,102060.41
2023-06-01T19:48:36.542Z,102059.69
2023-06-01T19:54:25.048Z,102068.84
2023-06-01T20:00:12.475Z,102076.31
2023-06-01T20:05:59.484Z,102098.72
2023-06-01T20:11:55.798Z,102105.66
2023-06-01T20:17:48.377Z,102126.94
2023-06-01T20:23:37.498Z,102137.03
2023-06-01T20:29:27.859Z,102131.13
2023-06-01T20:35:15.135Z,102145.22
2023-06-01T20:41:23.193Z,102134.81
2023-06-01T20:47:22.717Z,102157.59
2023-06-01T20:53:12.097Z,102137.91
2023-06-01T20:59:09.671Z,102132.03
2023-06-01T21:04:56.575Z,102139.69
2023-06-01T21:10:43.641Z,102135.75
2023-06-01T21:16:32.895Z,102140.41
2023-06-01T21:22:20.418Z,102148.06
2023-06-01T21:28:09.406Z,102148.59
2023-06-01T21:34:00.874Z,102142.44
2023-06-01T21:39:49.731Z,102149.88
2023-06-01T21:45:40.845Z,102156.53
2023-06-01T21:51:30.696Z,102152.47
2023-06-01T21:57:17.732Z,102142.88
2023-06-01T22:03:04.708Z,102161.88
2023-06-01T22:08:51.665Z,102144.91
2023-06-01T22:14:40.515Z,102145.47
2023-06-01T22:20:28.657Z,102147.63
2023-06-01T22:26:18.586Z,102144.78
2023-06-01T22:32:06.359Z,102154.31
2023-06-01T22:37:55.231Z,102152.63
2023-06-01T22:43:46.854Z,102143.41
2023-06-01T22:49:35.146Z,102150.88
2023-06-01T22:55:22.066Z,102157.59
2023-06-01T23:01:12.840Z,102159.88
2023-06-01T23:07:07.664Z,102166.84
2023-06-01T23:13:05.594Z,102178.84
2023-06-01T23:18:53.796Z,102160.88
2023-06-01T23:24:42.844Z,102174.19
2023-06-01T23:30:29.652Z,102171.72
2023-06-01T23:36:18.099Z,102177.03
2023-06-01T23:42:10.698Z,102174.44
2023-06-01T23:47:58.850Z,102185.06
2023-06-01T23:53:45.981Z,102193.72
2023-06-01T23:59:34.702Z,102184.88
